Time;durP1;ratioP1;P1;durP2;ratioP2;P2;SDS_P1;SDS_P2;PMS_P1;PMS_P2;Temp;Humidity;BMP_temperature;BMP_pressure;BME280_temperature;BME280_humidity;BME280_pressure;Samples;Min_cycle;Max_cycle;Signal;HPM_P1;HPM_P2
2022/10/12 00:04:45;;;;;;;8.23;4.45;;;;;;;4.79;96.86;100965.66;10570402;28;20044;-71
2022/10/12 00:09:47;;;;;;;9.82;4.07;;;;;;;4.75;97.23;100975.16;10587602;28;20112;-71
2022/10/12 00:14:49;;;;;;;6.55;4.07;;;;;;;4.83;97.23;100975.22;10588993;28;20043;-71
2022/10/12 00:19:51;;;;;;;8.52;4.30;;;;;;;4.89;96.22;100970.03;10572499;28;20420;-71
2022/10/12 00:24:52;;;;;;;5.78;3.72;;;;;;;4.85;95.87;100967.41;10587888;28;20071;-71
2022/10/12 00:29:54;;;;;;;10.50;3.67;;;;;;;4.89;96.02;100969.19;10587099;28;20039;-72
2022/10/12 00:34:55;;;;;;;7.45;4.00;;;;;;;4.88;95.98;100970.03;10586992;28;20097;-71
2022/10/12 00:39:57;;;;;;;6.55;3.70;;;;;;;4.98;94.76;100970.09;10569531;28;20062;-71
2022/10/12 00:44:59;;;;;;;5.75;2.88;;;;;;;4.93;95.42;100982.22;10586885;28;20082;-71
2022/10/12 00:50:09;;;;;;;8.00;3.35;;;;;;;5.09;93.43;100972.78;10568350;28;20438;-71
2022/10/12 00:55:16;;;;;;;5.97;3.35;;;;;;;4.76;95.50;100978.63;10585205;28;20547;-71
2022/10/12 01:00:19;;;;;;;14.00;4.32;;;;;;;4.53;96.83;100971.53;10588838;28;20395;-71
2022/10/12 01:05:21;;;;;;;6.03;3.17;;;;;;;4.58;97.67;100970.69;10588305;28;20040;-71
2022/10/12 01:10:23;;;;;;;8.30;3.88;;;;;;;4.55;96.84;100964.59;10586902;28;20550;-71
2022/10/12 01:15:32;;;;;;;6.88;3.20;;;;;;;4.46;97.53;100959.31;10585027;28;20043;-71
2022/10/12 01:20:46;;;;;;;7.07;3.10;;;;;;;4.44;97.80;100958.44;10585234;28;20055;-71
2022/10/12 01:26:20;;;;;;;10.35;3.63;;;;;;;4.36;96.73;100957.50;10587755;28;20076;-71
2022/10/12 01:31:31;;;;;;;6.05;2.97;;;;;;;4.36;97.16;100962.72;10583846;28;20047;-71
2022/10/12 01:36:41;;;;;;;10.40;3.47;;;;;;;4.33;96.04;100972.22;10584772;28;20082;-71
2022/10/12 01:41:47;;;;;;;4.70;2.80;;;;;;;4.58;93.84;100970.69;10584370;28;20057;-71
2022/10/12 01:46:51;;;;;;;7.65;3.38;;;;;;;4.50;93.77;100961.09;10568794;28;20133;-71
2022/10/12 01:52:09;;;;;;;5.95;3.00;;;;;;;4.25;95.14;100960.03;10583683;28;20554;-71
2022/10/12 01:57:19;;;;;;;6.53;3.45;;;;;;;4.01;97.66;100958.06;10584432;28;20092;-71
2022/10/12 02:02:33;;;;;;;6.85;3.05;;;;;;;3.92;98.66;100960.56;10585916;28;20041;-70
2022/10/12 02:07:46;;;;;;;5.88;3.40;;;;;;;4.11;97.84;100952.94;10585593;28;20050;-71
2022/10/12 02:12:48;;;;;;;5.32;3.38;;;;;;;4.02;97.20;100949.38;10566508;28;20089;-71
2022/10/12 02:17:52;;;;;;;7.22;2.97;;;;;;;4.30;95.18;100947.91;10567916;28;20504;-71
2022/10/12 02:22:53;;;;;;;7.22;3.20;;;;;;;4.08;95.17;100956.41;10566134;28;20557;-71
2022/10/12 02:28:02;;;;;;;4.95;2.90;;;;;;;3.65;97.53;100945.56;10583372;28;20044;-74
2022/10/12 02:33:16;;;;;;;3.53;2.70;;;;;;;3.53;99.40;100948.88;10565647;28;20051;-74
2022/10/12 02:38:40;;;;;;;4.82;3.17;;;;;;;4.02;96.64;100953.72;10581984;28;20039;-74
2022/10/12 02:43:51;;;;;;;7.18;3.17;;;;;;;3.68;96.94;100952.53;10581501;28;20047;-74
2022/10/12 02:48:54;;;;;;;6.13;2.80;;;;;;;3.53;98.91;100945.41;10581649;28;20040;-74
2022/10/12 02:53:56;;;;;;;8.07;3.22;;;;;;;3.74;98.29;100947.38;10584185;28;20101;-74
2022/10/12 02:58:57;;;;;;;10.10;3.25;;;;;;;3.98;96.86;100947.59;10581433;28;20043;-74
2022/10/12 03:03:59;;;;;;;10.10;3.63;;;;;;;3.99;96.09;100948.50;10563114;28;20090;-74
2022/10/12 03:09:01;;;;;;;7.53;3.42;;;;;;;3.68;97.00;100949.94;10580575;28;20066;-74
2022/10/12 03:14:03;;;;;;;4.90;2.67;;;;;;;3.46;99.28;100943.59;10583175;28;20047;-74
2022/10/12 03:19:05;;;;;;;6.18;2.63;;;;;;;3.74;98.49;100939.56;10566221;28;20059;-74
2022/10/12 03:24:06;;;;;;;7.70;3.60;;;;;;;3.59;97.40;100935.09;10589155;28;20070;-74
2022/10/12 03:29:08;;;;;;;12.00;3.17;;;;;;;3.31;99.33;100939.09;10588682;28;20070;-74
2022/10/12 03:34:10;;;;;;;8.93;4.20;;;;;;;3.27;99.96;100943.34;10589122;28;20036;-74
2022/10/12 03:39:11;;;;;;;9.05;3.20;;;;;;;3.29;100.00;100939.06;10588979;28;20052;-74
2022/10/12 03:44:13;;;;;;;8.45;3.70;;;;;;;3.39;100.00;100939.19;10589577;28;20044;-74
2022/10/12 03:49:14;;;;;;;6.90;3.50;;;;;;;3.77;97.05;100935.28;10568943;28;20048;-74
2022/10/12 03:54:16;;;;;;;8.27;3.80;;;;;;;3.83;94.90;100939.66;10552355;28;20058;-74
2022/10/12 03:59:18;;;;;;;9.27;3.72;;;;;;;3.32;96.95;100943.44;10588702;28;20100;-73
2022/10/12 04:04:22;;;;;;;11.23;4.80;;;;;;;3.14;99.10;100936.25;10590829;28;20444;-74
2022/10/12 04:09:24;;;;;;;12.43;5.60;;;;;;;3.03;99.78;100930.94;10553347;28;20513;-74
2022/10/12 04:14:26;;;;;;;8.15;4.57;;;;;;;3.01;100.00;100934.34;10603651;22;20047;-76
2022/10/12 04:19:27;;;;;;;7.72;4.63;;;;;;;3.09;100.00;100932.75;10576981;28;20047;-76
2022/10/12 04:24:29;;;;;;;11.88;5.50;;;;;;;3.34;98.87;100927.88;10594110;28;20043;-75
2022/10/12 04:29:31;;;;;;;9.15;5.15;;;;;;;3.53;98.67;100932.41;10591430;28;20062;-73
2022/10/12 04:34:34;;;;;;;7.53;5.75;;;;;;;3.33;99.12;100932.19;10589326;28;20050;-72
2022/10/12 04:39:36;;;;;;;9.75;6.03;;;;;;;3.38;99.73;100929.66;10587384;28;20447;-71
2022/10/12 04:44:38;;;;;;;8.23;5.22;;;;;;;3.39;99.59;100929.66;10569019;28;20412;-73
2022/10/12 04:49:39;;;;;;;9.10;5.07;;;;;;;3.58;99.50;100924.66;10567921;28;20036;-72
2022/10/12 04:54:41;;;;;;;11.43;6.57;;;;;;;3.67;98.69;100933.44;10589021;28;20093;-73
2022/10/12 04:59:42;;;;;;;11.55;5.50;;;;;;;3.41;98.91;100933.16;10570247;28;20130;-74
2022/10/12 05:04:44;;;;;;;11.68;5.35;;;;;;;3.56;99.44;100935.06;10568249;28;20476;-74
2022/10/12 05:09:46;;;;;;;21.45;6.40;;;;;;;3.80;97.67;100934.44;10567751;28;20059;-74
2022/10/12 05:14:47;;;;;;;8.85;5.65;;;;;;;3.38;97.85;100932.25;10586151;28;20521;-74
2022/10/12 05:19:49;;;;;;;12.15;5.80;;;;;;;3.47;100.00;100930.63;10566718;28;20048;-74
2022/10/12 05:24:51;;;;;;;16.23;8.13;;;;;;;3.48;98.65;100934.09;10584912;28;20493;-74
2022/10/12 05:29:54;;;;;;;13.48;7.00;;;;;;;3.33;100.00;100929.59;10550251;28;20147;-75
2022/10/12 05:34:56;;;;;;;11.07;5.95;;;;;;;3.24;100.00;100932.09;10566334;28;20097;-74
2022/10/12 05:39:58;;;;;;;13.38;6.20;;;;;;;3.27;100.00;100935.56;10584884;28;20043;-72
2022/10/12 05:45:00;;;;;;;9.82;6.03;;;;;;;3.71;97.52;100931.72;10566378;28;20047;-72
2022/10/12 05:50:02;;;;;;;10.40;6.20;;;;;;;3.59;97.31;100926.44;10584806;28;20060;-74
2022/10/12 05:55:04;;;;;;;9.93;7.95;;;;;;;3.58;97.95;100929.84;10585115;28;20050;-72
2022/10/12 06:00:08;;;;;;;10.07;6.10;;;;;;;3.41;99.51;100933.16;10567454;28;20405;-73
2022/10/12 06:05:13;;;;;;;10.20;6.57;;;;;;;3.59;99.60;100939.44;10585415;28;20047;-73
2022/10/12 06:10:14;;;;;;;8.90;6.05;;;;;;;3.46;100.00;100935.81;10584936;28;20044;-73
2022/10/12 06:15:16;;;;;;;8.23;5.70;;;;;;;3.50;100.00;100943.66;10584845;28;20439;-73
2022/10/12 06:20:18;;;;;;;16.17;6.25;;;;;;;4.04;100.00;100947.69;10567050;28;20071;-73
2022/10/12 06:25:20;;;;;;;10.57;5.68;;;;;;;4.10;100.00;100948.59;10584745;28;20036;-73
2022/10/12 06:30:21;;;;;;;26.05;6.05;;;;;;;4.17;100.00;100959.09;10583663;28;20074;-74
2022/10/12 06:35:23;;;;;;;9.57;5.38;;;;;;;4.49;99.54;100959.34;10574707;28;20036;-73
2022/10/12 06:40:25;;;;;;;8.98;4.85;;;;;;;4.36;99.31;100959.25;10565101;28;20043;-73
2022/10/12 06:45:28;;;;;;;7.32;4.47;;;;;;;4.37;100.00;100966.19;10582872;28;20516;-73
2022/10/12 06:50:30;;;;;;;10.07;5.65;;;;;;;4.41;100.00;100971.44;10585256;28;20448;-73
2022/10/12 06:55:31;;;;;;;12.50;5.45;;;;;;;4.52;100.00;100974.13;10587661;28;20433;-73
2022/10/12 07:00:34;;;;;;;8.27;3.70;;;;;;;4.76;99.97;100969.09;10572871;28;20055;-73
2022/10/12 07:05:35;;;;;;;11.23;3.85;;;;;;;5.23;97.79;100967.66;10591729;28;20073;-73
2022/10/12 07:10:37;;;;;;;8.15;3.78;;;;;;;5.28;96.04;100966.78;10589012;28;20047;-73
2022/10/12 07:15:38;;;;;;;7.97;3.63;;;;;;;5.53;96.36;100965.16;10583697;28;20043;-73
2022/10/12 07:20:40;;;;;;;6.95;2.90;;;;;;;5.64;95.81;100959.97;10589748;28;20051;-73
2022/10/12 07:25:52;;;;;;;12.85;4.38;;;;;;;6.32;92.39;100955.78;10571429;28;20047;-73
2022/10/12 07:30:53;;;;;;;14.38;3.95;;;;;;;6.49;89.87;100956.63;10571437;28;20044;-72
2022/10/12 07:35:55;;;;;;;10.68;3.40;;;;;;;6.88;88.49;100954.00;10590192;28;20075;-73
2022/10/12 07:41:14;;;;;;;10.38;2.92;;;;;;;6.90;87.58;100952.22;10589122;28;20072;-73
2022/10/12 07:46:16;;;;;;;12.02;3.25;;;;;;;6.80;87.81;100946.16;10587933;28;20036;-73
2022/10/12 07:51:18;;;;;;;6.25;2.53;;;;;;;7.01;86.78;100946.13;10587564;28;20101;-73
2022/10/12 07:56:20;;;;;;;7.78;2.65;;;;;;;7.31;85.38;100944.28;10588566;28;20067;-73
2022/10/12 08:01:23;;;;;;;6.78;2.42;;;;;;;7.72;82.90;100945.84;10588925;28;20093;-73
2022/10/12 08:06:28;;;;;;;7.55;2.38;;;;;;;7.77;81.23;100949.28;10581132;28;20392;-74
2022/10/12 08:11:29;;;;;;;9.38;2.33;;;;;;;7.80;81.83;100952.75;10570322;28;20059;-73
2022/10/12 08:16:31;;;;;;;6.55;2.67;;;;;;;7.70;82.21;100952.81;10588195;28;20046;-73
2022/10/12 08:21:33;;;;;;;6.82;2.60;;;;;;;8.14;80.31;100949.91;10587530;28;20447;-73
2022/10/12 08:26:35;;;;;;;4.95;2.42;;;;;;;8.05;80.78;100936.88;10586697;28;20484;-73
2022/10/12 08:31:36;;;;;;;6.82;2.10;;;;;;;8.39;79.31;100936.66;10587392;28;20056;-73
2022/10/12 08:36:38;;;;;;;7.60;2.65;;;;;;;8.23;80.70;100939.38;10586930;28;20055;-73
2022/10/12 08:41:55;;;;;;;13.80;1.80;;;;;;;8.55;79.93;100946.16;10570465;28;20094;-73
2022/10/12 08:47:03;;;;;;;6.60;2.55;;;;;;;8.56;80.36;100937.41;10587513;28;20043;-74
2022/10/12 08:52:19;;;;;;;7.40;2.53;;;;;;;8.82;78.28;100924.03;10588020;28;20093;-73
2022/10/12 08:57:21;;;;;;;6.87;2.57;;;;;;;9.31;74.70;100926.97;10587941;28;20036;-73
2022/10/12 09:03:05;;;;;;;7.35;2.33;;;;;;;9.43;73.71;100910.22;10569459;28;20285;-73
2022/10/12 09:08:49;;;;;;;5.03;2.03;;;;;;;9.68;73.49;100915.13;10586507;28;20501;-73
2022/10/12 09:14:17;;;;;;;7.75;2.20;;;;;;;10.04;71.78;100917.19;10585656;28;20089;-73
2022/10/12 09:19:41;;;;;;;11.52;2.50;;;;;;;10.26;70.53;100911.63;10579594;28;20063;-73
2022/10/12 09:24:46;;;;;;;7.65;2.60;;;;;;;10.49;70.30;100912.13;10567778;28;20048;-73
2022/10/12 09:29:54;;;;;;;7.15;3.13;;;;;;;10.93;67.21;100915.69;10569029;28;20047;-73
2022/10/12 09:34:57;;;;;;;6.95;2.05;;;;;;;10.71;69.73;100903.84;10567799;28;20036;-74
2022/10/12 09:39:58;;;;;;;8.48;2.17;;;;;;;11.24;67.63;100905.41;10584890;28;20084;-72
2022/10/12 09:45:11;;;;;;;6.57;2.55;;;;;;;11.57;66.63;100900.34;10566253;28;20074;-74
2022/10/12 09:50:35;;;;;;;11.52;2.40;;;;;;;12.18;64.38;100893.69;10568716;28;20081;-72
2022/10/12 09:55:37;;;;;;;6.10;2.58;;;;;;;12.71;61.75;100888.81;10585783;28;20055;-73
2022/10/12 10:00:39;;;;;;;6.38;2.25;;;;;;;13.15;59.76;100886.69;10585660;28;20039;-73
2022/10/12 10:05:41;;;;;;;5.13;2.22;;;;;;;13.57;59.39;100881.94;10585162;28;20481;-73
2022/10/12 10:10:54;;;;;;;5.90;2.40;;;;;;;14.10;58.66;100871.44;10583322;28;20047;-73
2022/10/12 10:16:10;;;;;;;6.38;2.08;;;;;;;15.06;53.70;100876.97;10581332;28;20046;-71
2022/10/12 10:21:13;;;;;;;12.43;3.23;;;;;;;15.07;54.61;100874.25;10571152;28;20039;-70
2022/10/12 10:26:18;;;;;;;7.63;2.55;;;;;;;15.63;53.73;100865.94;10584864;28;20044;-70
2022/10/12 10:31:24;;;;;;;4.35;2.05;;;;;;;15.83;52.50;100869.59;10577093;28;20462;-70
2022/10/12 10:36:26;;;;;;;5.88;2.20;;;;;;;16.17;51.91;100862.94;10593838;28;20035;-70
2022/10/12 10:41:35;;;;;;;10.05;2.33;;;;;;;16.64;51.69;100858.22;10592757;28;20085;-70
2022/10/12 10:46:37;;;;;;;6.93;2.20;;;;;;;16.95;46.94;100852.44;10573931;28;20040;-71
2022/10/12 10:51:40;;;;;;;5.78;2.03;;;;;;;17.29;45.89;100857.09;10591866;28;20551;-71
2022/10/12 10:56:43;;;;;;;3.75;2.10;;;;;;;17.53;45.59;100855.09;10590741;28;20483;-71
2022/10/12 11:01:54;;;;;;;3.38;2.08;;;;;;;17.67;45.82;100846.44;10573210;28;20036;-71
2022/10/12 11:07:02;;;;;;;7.72;2.28;;;;;;;18.08;44.46;100843.59;10591372;28;20093;-71
2022/10/12 11:12:16;;;;;;;4.05;2.42;;;;;;;17.95;43.47;100837.16;10591993;28;20047;-71
2022/10/12 11:17:41;;;;;;;6.35;2.38;;;;;;;17.76;44.55;100831.88;10591202;28;20443;-71
2022/10/12 11:22:56;;;;;;;5.53;1.85;;;;;;;18.41;43.74;100825.88;10574356;28;20121;-72
2022/10/12 11:27:58;;;;;;;5.50;2.20;;;;;;;18.03;42.50;100817.22;10591616;28;20039;-71
2022/10/12 11:33:04;;;;;;;4.50;2.28;;;;;;;18.19;44.85;100814.63;10590749;28;20051;-70
2022/10/12 11:38:34;;;;;;;5.30;1.97;;;;;;;18.26;45.11;100805.38;10591048;28;20035;-71
2022/10/12 11:43:55;;;;;;;3.85;1.85;;;;;;;17.77;44.64;100799.03;10590049;28;20281;-72
2022/10/12 11:49:06;;;;;;;3.88;2.17;;;;;;;18.10;43.14;100794.66;10590349;28;20114;-72
2022/10/12 11:54:23;;;;;;;5.55;1.75;;;;;;;18.13;46.52;100791.84;10571661;28;20100;-72
2022/10/12 11:59:33;;;;;;;5.05;1.88;;;;;;;18.22;42.88;100781.69;10589906;28;20067;-72
2022/10/12 12:04:36;;;;;;;5.05;2.22;;;;;;;17.37;45.42;100780.53;10590566;28;20039;-72
2022/10/12 12:09:44;;;;;;;6.63;2.10;;;;;;;17.03;45.91;100773.28;10589685;28;20052;-72
2022/10/12 12:14:54;;;;;;;4.40;2.17;;;;;;;16.53;47.13;100765.81;10571526;28;20385;-71
2022/10/12 12:20:00;;;;;;;6.63;2.60;;;;;;;16.54;46.79;100759.56;10591494;28;20098;-72
2022/10/12 12:25:09;;;;;;;6.07;2.25;;;;;;;16.42;47.82;100753.94;10590947;28;20043;-71
2022/10/12 12:30:17;;;;;;;4.60;1.90;;;;;;;16.13;49.31;100751.66;10571854;28;20066;-73
2022/10/12 12:35:32;;;;;;;4.18;1.83;;;;;;;16.11;48.71;100756.19;10588270;28;20035;-72
2022/10/12 12:40:35;;;;;;;3.90;1.70;;;;;;;15.86;50.10;100753.69;10587649;28;20516;-71
2022/10/12 12:45:40;;;;;;;7.82;2.53;;;;;;;15.96;49.03;100748.00;10587894;28;20046;-71
2022/10/12 12:50:41;;;;;;;7.43;2.95;;;;;;;15.93;50.09;100748.13;10585416;28;20050;-71
2022/10/12 12:55:49;;;;;;;5.28;2.40;;;;;;;15.91;49.38;100745.56;10545331;28;20044;-71
2022/10/12 13:01:15;;;;;;;4.80;2.05;;;;;;;15.62;51.00;100744.06;10586127;28;20085;-73
2022/10/12 13:06:53;;;;;;;8.98;2.15;;;;;;;15.93;49.79;100738.38;10585521;28;20047;-71
2022/10/12 13:12:04;;;;;;;3.60;1.67;;;;;;;15.82;50.13;100730.91;10568687;28;20050;-72
2022/10/12 13:17:39;;;;;;;5.93;2.30;;;;;;;15.64;49.99;100724.59;10586573;28;20046;-72
2022/10/12 13:22:43;;;;;;;5.32;2.15;;;;;;;15.78;50.09;100726.66;10586228;28;20043;-71
2022/10/12 13:27:50;;;;;;;5.18;2.25;;;;;;;15.62;50.14;100718.44;10584790;28;20036;-71
2022/10/12 13:33:01;;;;;;;6.60;2.03;;;;;;;15.98;48.73;100714.31;10584803;28;20047;-71
2022/10/12 13:38:15;;;;;;;4.78;1.73;;;;;;;15.67;49.42;100709.47;10584463;28;20069;-71
2022/10/12 13:43:27;;;;;;;7.47;2.00;;;;;;;15.78;49.69;100705.44;10584161;28;20093;-71
2022/10/12 13:48:29;;;;;;;6.22;1.70;;;;;;;15.75;49.11;100699.41;10583817;28;20070;-71
2022/10/12 13:53:51;;;;;;;6.18;2.10;;;;;;;15.62;49.37;100691.94;10583479;28;20447;-71
2022/10/12 13:58:58;;;;;;;4.32;2.00;;;;;;;15.36;50.25;100689.50;10583524;28;20051;-72
2022/10/12 14:04:04;;;;;;;5.95;1.85;;;;;;;15.61;50.08;100678.75;10584671;28;20050;-72
2022/10/12 14:09:13;;;;;;;5.33;1.83;;;;;;;15.66;50.47;100670.63;10565492;28;20044;-73
2022/10/12 14:14:32;;;;;;;7.65;2.63;;;;;;;15.75;49.29;100668.44;10583197;28;20035;-73
2022/10/12 14:19:44;;;;;;;6.93;2.13;;;;;;;15.46;50.19;100668.81;10567429;28;20503;-72
2022/10/12 14:24:46;;;;;;;5.43;2.35;;;;;;;15.43;50.27;100671.59;10584047;28;20040;-72
2022/10/12 14:30:02;;;;;;;4.10;2.15;;;;;;;15.43;50.52;100664.50;10583679;28;20043;-72
2022/10/12 14:35:07;;;;;;;5.25;2.33;;;;;;;15.46;50.29;100659.06;10566323;28;20119;-72
2022/10/12 14:40:26;;;;;;;5.88;2.22;;;;;;;15.54;50.37;100656.13;10566687;28;20119;-72
2022/10/12 14:45:28;;;;;;;7.60;2.80;;;;;;;15.58;50.86;100647.97;10584651;28;20093;-71
2022/10/12 14:50:31;;;;;;;6.18;2.42;;;;;;;15.20;51.72;100640.75;10583933;28;20051;-72
2022/10/12 14:55:33;;;;;;;6.35;3.38;;;;;;;15.08;53.84;100650.06;10564933;28;20044;-72
2022/10/12 15:00:36;;;;;;;8.55;2.85;;;;;;;15.46;52.54;100639.66;10566447;28;20039;-72
2022/10/12 15:05:38;;;;;;;5.10;2.83;;;;;;;15.41;52.67;100636.34;10584681;28;20044;-72
2022/10/12 15:10:39;;;;;;;7.03;3.22;;;;;;;15.23;53.45;100635.31;10585899;28;20048;-71
2022/10/12 15:15:45;;;;;;;9.13;3.40;;;;;;;15.11;54.21;100626.97;10568651;28;20040;-72
2022/10/12 15:20:47;;;;;;;7.55;3.70;;;;;;;15.06;54.48;100625.44;10573447;28;20039;-74
2022/10/12 15:25:54;;;;;;;5.88;3.00;;;;;;;14.88;55.13;100629.69;10572650;28;20153;-72
2022/10/12 15:30:58;;;;;;;5.53;3.25;;;;;;;14.58;56.89;100627.31;10590563;28;20039;-72
2022/10/12 15:36:20;;;;;;;6.43;3.55;;;;;;;14.45;57.37;100627.81;10574954;28;20113;-75
2022/10/12 15:41:24;;;;;;;6.07;3.65;;;;;;;14.33;58.02;100626.50;10591347;28;20039;-74
2022/10/12 15:46:26;;;;;;;6.55;3.20;;;;;;;14.50;58.05;100631.19;10572655;28;20089;-74
2022/10/12 15:51:28;;;;;;;6.22;3.92;;;;;;;14.32;58.88;100623.00;10590084;28;20051;-72
2022/10/12 15:56:30;;;;;;;8.93;3.80;;;;;;;14.09;59.70;100620.34;10589038;28;20039;-73
2022/10/12 16:01:33;;;;;;;5.78;3.60;;;;;;;14.18;61.44;100624.44;10570553;28;20492;-72
2022/10/12 16:06:35;;;;;;;8.00;4.20;;;;;;;13.95;60.99;100620.00;10589239;28;20047;-72
2022/10/12 16:11:37;;;;;;;7.57;4.45;;;;;;;13.51;62.31;100611.88;10589080;28;20040;-72
2022/10/12 16:16:38;;;;;;;6.60;3.70;;;;;;;13.44;64.46;100621.78;10590181;28;20036;-69
2022/10/12 16:21:40;;;;;;;6.78;4.47;;;;;;;13.11;65.98;100621.09;10571317;28;20532;-70
2022/10/12 16:26:42;;;;;;;6.57;3.85;;;;;;;13.03;68.22;100618.69;10588832;28;20101;-70
2022/10/12 16:31:45;;;;;;;9.30;5.07;;;;;;;12.77;71.44;100614.25;10586806;28;20048;-71
2022/10/12 16:36:47;;;;;;;9.68;8.05;;;;;;;12.68;73.38;100617.19;10568971;28;20040;-70
2022/10/12 16:41:49;;;;;;;12.65;9.38;;;;;;;12.47;74.83;100629.25;10568965;28;20061;-71
2022/10/12 16:46:50;;;;;;;11.05;9.23;;;;;;;12.12;75.27;100628.50;10567955;28;20043;-70
2022/10/12 16:51:52;;;;;;;12.95;9.82;;;;;;;11.81;76.85;100628.47;10586206;28;20069;-71
2022/10/12 16:56:55;;;;;;;13.50;9.65;;;;;;;12.15;76.85;100634.63;10587186;28;20050;-70
2022/10/12 17:01:57;;;;;;;12.75;7.85;;;;;;;11.68;78.04;100634.97;10587092;28;20043;-69
2022/10/12 17:06:58;;;;;;;11.35;7.32;;;;;;;11.49;78.52;100633.75;10567479;28;20044;-69
2022/10/12 17:12:00;;;;;;;11.73;6.90;;;;;;;11.28;80.22;100633.38;10585837;28;20534;-69
2022/10/12 17:17:02;;;;;;;10.55;6.93;;;;;;;11.13;81.06;100636.41;10585890;28;20036;-69
2022/10/12 17:22:05;;;;;;;8.48;7.15;;;;;;;11.01;82.24;100637.53;10586325;28;20044;-70
2022/10/12 17:27:10;;;;;;;11.20;8.25;;;;;;;11.04;82.23;100645.38;10583946;28;20039;-71
2022/10/12 17:32:11;;;;;;;12.70;7.85;;;;;;;10.85;83.74;100652.84;10585355;28;20081;-71
2022/10/12 17:37:14;;;;;;;13.60;7.78;;;;;;;10.70;84.63;100649.69;10584257;28;20036;-69
2022/10/12 17:42:16;;;;;;;10.77;7.65;;;;;;;10.79;83.94;100646.84;10584743;28;20070;-71
2022/10/12 17:47:18;;;;;;;10.80;7.97;;;;;;;10.58;84.47;100642.91;10584525;28;20044;-70
2022/10/12 17:52:20;;;;;;;10.98;8.50;;;;;;;10.40;85.34;100646.81;10585120;28;20066;-71
2022/10/12 17:57:22;;;;;;;9.32;8.35;;;;;;;10.28;86.73;100647.09;10584640;28;20122;-70
2022/10/12 18:02:23;;;;;;;12.02;9.95;;;;;;;10.10;87.21;100641.28;10576167;28;20044;-70
2022/10/12 18:07:25;;;;;;;10.32;8.55;;;;;;;9.81;86.84;100643.59;10583515;28;20040;-69
2022/10/12 18:12:27;;;;;;;11.23;9.38;;;;;;;9.84;87.75;100647.03;10583419;28;20411;-70
2022/10/12 18:17:28;;;;;;;12.90;9.93;;;;;;;9.74;88.80;100635.00;10582998;28;20047;-70
2022/10/12 18:22:30;;;;;;;11.07;9.90;;;;;;;9.75;89.35;100636.72;10584226;28;20047;-70
2022/10/12 18:27:32;;;;;;;10.45;9.05;;;;;;;9.63;89.71;100642.19;10585304;28;20039;-70
2022/10/12 18:32:34;;;;;;;12.38;9.95;;;;;;;9.41;89.96;100641.69;10584997;28;20055;-70
2022/10/12 18:37:36;;;;;;;11.32;9.38;;;;;;;9.36;90.43;100638.28;10584857;28;20040;-70
2022/10/12 18:42:38;;;;;;;12.57;9.52;;;;;;;9.49;91.16;100644.19;10585307;28;20051;-70
2022/10/12 18:47:40;;;;;;;14.23;10.13;;;;;;;9.35;91.54;100636.56;10567156;28;20044;-71
2022/10/12 18:52:43;;;;;;;13.65;10.38;;;;;;;9.43;91.47;100636.41;10592934;28;20039;-71
2022/10/12 18:57:44;;;;;;;12.38;9.75;;;;;;;9.39;92.04;100633.00;10594047;28;20118;-71
2022/10/12 19:02:46;;;;;;;16.08;9.93;;;;;;;9.44;92.39;100636.41;10593451;28;20051;-70
2022/10/12 19:07:48;;;;;;;13.10;10.43;;;;;;;9.34;92.29;100634.81;10573913;28;20055;-70
2022/10/12 19:12:50;;;;;;;13.35;11.70;;;;;;;9.40;92.06;100644.34;10574956;28;20063;-70
2022/10/12 19:17:52;;;;;;;17.50;12.55;;;;;;;9.37;91.98;100640.00;10574426;28;20047;-71
2022/10/12 19:22:54;;;;;;;16.63;12.07;;;;;;;9.17;93.02;100634.25;10574632;28;20576;-71
2022/10/12 19:27:56;;;;;;;20.88;12.93;;;;;;;9.07;93.27;100636.13;10574770;28;20047;-71
2022/10/12 19:32:57;;;;;;;13.25;11.50;;;;;;;8.86;93.87;100634.75;10592246;28;20036;-70
2022/10/12 19:37:59;;;;;;;13.43;12.05;;;;;;;8.51;95.26;100627.38;10571329;28;20060;-71
2022/10/12 19:43:00;;;;;;;16.42;12.18;;;;;;;8.58;95.25;100626.38;10571419;28;20135;-73
2022/10/12 19:48:03;;;;;;;16.88;12.55;;;;;;;8.59;96.21;100618.53;10570770;28;20048;-75
2022/10/12 19:53:05;;;;;;;20.10;13.18;;;;;;;8.61;95.52;100615.00;10590655;28;20050;-74
2022/10/12 19:58:07;;;;;;;17.15;12.48;;;;;;;8.33;96.47;100615.38;10573759;28;20051;-74
2022/10/12 20:03:09;;;;;;;14.30;11.90;;;;;;;8.28;97.20;100615.44;10572091;28;20094;-73
2022/10/12 20:08:11;;;;;;;11.98;10.55;;;;;;;8.15;96.98;100615.59;10572720;28;20048;-73
2022/10/12 20:13:14;;;;;;;17.83;12.00;;;;;;;8.24;96.58;100613.72;10573175;28;20046;-74
2022/10/12 20:18:16;;;;;;;14.38;11.55;;;;;;;8.14;96.41;100613.84;10575757;28;20471;-73
2022/10/12 20:23:18;;;;;;;13.05;11.60;;;;;;;7.94;97.11;100616.72;10591494;28;20061;-74
2022/10/12 20:28:20;;;;;;;14.52;11.02;;;;;;;8.00;97.96;100620.13;10590594;28;20035;-73
2022/10/12 20:33:22;;;;;;;17.10;11.55;;;;;;;8.03;97.78;100611.38;10571398;28;20059;-74
2022/10/12 20:38:24;;;;;;;14.80;11.35;;;;;;;7.98;98.21;100614.06;10569854;28;20047;-73
2022/10/12 20:43:26;;;;;;;14.30;11.48;;;;;;;7.94;97.66;100616.72;10570268;28;20048;-73
2022/10/12 20:48:28;;;;;;;16.33;11.68;;;;;;;8.02;98.35;100613.13;10569302;28;20038;-73
2022/10/12 20:53:30;;;;;;;13.88;12.48;;;;;;;8.02;96.81;100612.28;10586236;28;20538;-73
2022/10/12 20:58:32;;;;;;;12.15;10.63;;;;;;;7.79;98.06;100621.25;10586394;28;20055;-73
2022/10/12 21:03:34;;;;;;;15.38;12.43;;;;;;;7.59;99.44;100611.00;10567383;28;20050;-73
2022/10/12 21:08:36;;;;;;;17.38;11.13;;;;;;;7.57;99.76;100607.53;10586968;28;20544;-72
2022/10/12 21:13:39;;;;;;;12.52;11.20;;;;;;;7.42;100.00;100602.44;10585846;28;20101;-74
2022/10/12 21:18:42;;;;;;;18.77;12.48;;;;;;;7.41;100.00;100594.63;10584577;28;20508;-73
2022/10/12 21:23:50;;;;;;;14.48;12.18;;;;;;;7.48;99.35;100591.03;10585064;28;20040;-73
2022/10/12 21:28:52;;;;;;;12.05;10.30;;;;;;;7.31;99.71;100601.69;10584704;28;20489;-72
2022/10/12 21:33:54;;;;;;;16.55;11.07;;;;;;;7.19;100.00;100607.88;10584600;28;20074;-72
2022/10/12 21:38:56;;;;;;;15.05;12.00;;;;;;;7.27;99.53;100593.00;10584433;28;20501;-73
2022/10/12 21:43:58;;;;;;;16.65;11.55;;;;;;;7.30;100.00;100600.84;10565570;28;20040;-73
2022/10/12 21:49:01;;;;;;;14.23;11.18;;;;;;;7.33;99.56;100594.69;10565082;28;20102;-73
2022/10/12 21:54:04;;;;;;;11.82;10.13;;;;;;;7.30;99.18;100599.94;10583306;28;20054;-72
2022/10/12 21:59:05;;;;;;;12.05;10.90;;;;;;;7.37;100.00;100598.16;10583031;28;20044;-72
2022/10/12 22:04:12;;;;;;;13.18;11.48;;;;;;;7.64;99.13;100592.63;10583560;28;20044;-73
2022/10/12 22:09:17;;;;;;;21.80;11.43;;;;;;;7.48;99.83;100591.03;10564760;28;20047;-72
2022/10/12 22:14:19;;;;;;;12.60;11.32;;;;;;;7.30;100.00;100584.25;10582473;28;20067;-72
2022/10/12 22:19:21;;;;;;;13.50;11.18;;;;;;;7.09;100.00;100590.56;10583537;28;20047;-71
2022/10/12 22:24:22;;;;;;;13.10;11.90;;;;;;;6.98;100.00;100592.38;10583501;28;20044;-71
2022/10/12 22:29:24;;;;;;;16.88;12.52;;;;;;;7.02;100.00;100581.03;10583961;28;20044;-70
2022/10/12 22:34:26;;;;;;;13.30;10.77;;;;;;;7.12;100.00;100582.66;10565454;28;20043;-71
2022/10/12 22:39:27;;;;;;;12.20;11.13;;;;;;;7.13;100.00;100573.06;10583635;28;20036;-71
2022/10/12 22:44:29;;;;;;;11.80;10.68;;;;;;;7.10;100.00;100580.97;10564093;28;20052;-71
2022/10/12 22:49:30;;;;;;;11.93;10.82;;;;;;;7.17;100.00;100580.91;10581970;28;20048;-71
2022/10/12 22:54:32;;;;;;;11.05;10.05;;;;;;;7.17;100.00;100572.16;10581875;28;20078;-71
2022/10/12 22:59:34;;;;;;;11.90;10.50;;;;;;;7.20;100.00;100575.63;10582465;28;20070;-71
2022/10/12 23:04:35;;;;;;;11.18;10.18;;;;;;;7.25;100.00;100567.75;10582367;28;20127;-71
2022/10/12 23:09:37;;;;;;;14.63;10.57;;;;;;;7.28;100.00;100571.19;10581558;28;20432;-71
2022/10/12 23:14:39;;;;;;;13.10;11.18;;;;;;;7.25;100.00;100571.22;10581979;28;20059;-71
2022/10/12 23:19:40;;;;;;;12.98;10.50;;;;;;;7.25;100.00;100570.34;10582591;28;20051;-71
2022/10/12 23:24:42;;;;;;;12.18;10.20;;;;;;;7.31;100.00;100570.31;10582485;28;20078;-71